TAF and METAR

Could not understand the following METAR

YMEK 172000Z AUTO 17011KT 9999 // NCD 26/03 Q1011
No TAF available for Meekatharra Airport